createdAt,value
2023-04-02T00:00:37.769Z,101933.94
2023-04-02T00:03:08.727Z,101932.09
2023-04-02T00:05:52.200Z,101932.00
2023-04-02T00:08:24.871Z,101939.72
2023-04-02T00:10:55.464Z,101943.09
2023-04-02T00:13:46.927Z,101942.97
2023-04-02T00:16:24.965Z,101950.88
2023-04-02T00:18:56.391Z,101947.41
2023-04-02T00:21:27.828Z,101954.34
2023-04-02T00:23:56.732Z,101959.44
2023-04-02T00:26:32.905Z,101956.88
2023-04-02T00:29:05.071Z,101972.47
2023-04-02T00:31:32.894Z,101967.19
2023-04-02T00:34:06.900Z,101974.06
2023-04-02T00:36:34.614Z,101970.41
2023-04-02T00:39:04.929Z,101974.66
2023-04-02T00:41:36.202Z,101986.69
2023-04-02T00:44:03.646Z,101985.78
2023-04-02T00:46:34.703Z,101987.53
2023-04-02T00:49:09.157Z,101987.53
2023-04-02T00:51:41.861Z,101997.81
2023-04-02T00:54:15.996Z,102004.50
2023-04-02T00:56:46.363Z,102008.72
2023-04-02T00:59:27.819Z,102012.13
2023-04-02T01:02:01.977Z,102013.00
2023-04-02T01:04:36.575Z,102020.00
2023-04-02T01:07:07.242Z,102024.38
2023-04-02T01:09:56.937Z,102020.00
2023-04-02T01:12:34.174Z,102033.72
2023-04-02T01:15:07.328Z,102037.16
2023-04-02T01:18:00.246Z,102044.97
2023-04-02T01:21:04.519Z,102051.91
2023-04-02T01:24:04.441Z,102041.53
2023-04-02T01:26:54.651Z,102047.56
2023-04-02T01:29:48.612Z,102053.50
2023-04-02T01:32:19.803Z,102051.66
2023-04-02T01:34:48.647Z,102063.69
2023-04-02T01:37:39.865Z,102066.38
2023-04-02T01:40:27.868Z,102064.63
2023-04-02T01:43:06.427Z,102070.63
2023-04-02T01:45:35.552Z,102066.28
2023-04-02T01:48:13.866Z,102074.03
2023-04-02T01:50:42.996Z,102079.19
2023-04-02T01:53:16.180Z,102079.13
2023-04-02T01:55:48.879Z,102089.56
2023-04-02T01:58:20.367Z,102093.84
2023-04-02T02:00:53.625Z,102092.91
2023-04-02T02:03:21.816Z,102092.78
2023-04-02T02:05:48.800Z,102097.94
2023-04-02T02:08:39.933Z,102096.16
2023-04-02T02:11:08.759Z,102106.63
2023-04-02T02:13:36.278Z,102104.03
2023-04-02T02:16:05.007Z,102106.63
2023-04-02T02:18:32.500Z,102109.97
2023-04-02T02:21:01.290Z,102120.34
2023-04-02T02:23:30.012Z,102115.94
2023-04-02T02:25:56.943Z,102123.72
2023-04-02T02:28:27.755Z,102124.59
2023-04-02T02:31:01.539Z,102129.75
2023-04-02T02:33:42.588Z,102124.38
2023-04-02T02:36:28.237Z,102138.25
2023-04-02T02:39:13.352Z,102139.09
2023-04-02T02:42:00.346Z,102139.84
2023-04-02T02:44:41.263Z,102150.22
2023-04-02T02:47:16.074Z,102149.25
2023-04-02T02:49:50.056Z,102150.81
2023-04-02T02:52:20.472Z,102162.22
2023-04-02T02:54:51.320Z,102160.50
2023-04-02T02:57:26.308Z,102169.16
2023-04-02T02:59:57.213Z,102168.28
2023-04-02T03:02:26.906Z,102166.56
2023-04-02T03:04:56.179Z,102174.38
2023-04-02T03:07:26.576Z,102180.41
2023-04-02T03:10:13.871Z,102183.00
2023-04-02T03:13:05.249Z,102178.69
2023-04-02T03:15:42.363Z,102190.63
2023-04-02T03:18:18.187Z,102194.13
2023-04-02T03:21:11.743Z,102194.00
2023-04-02T03:23:50.998Z,102207.84
2023-04-02T03:26:32.717Z,102212.94
2023-04-02T03:29:02.122Z,102209.41
2023-04-02T03:31:59.785Z,102217.91
2023-04-02T03:34:51.493Z,102222.34
2023-04-02T03:37:43.296Z,102225.66
2023-04-02T03:40:20.958Z,102233.50
2023-04-02T03:42:58.354Z,102241.25
2023-04-02T03:45:35.953Z,102241.13
2023-04-02T03:48:10.234Z,102242.84
2023-04-02T03:51:00.031Z,102251.44
2023-04-02T03:53:28.089Z,102255.72
2023-04-02T03:55:56.781Z,102260.78
2023-04-02T03:58:41.273Z,102266.03
2023-04-02T04:01:26.522Z,102261.53
2023-04-02T04:04:03.852Z,102273.50
2023-04-02T04:06:33.580Z,102274.22
2023-04-02T04:09:11.305Z,102274.09
2023-04-02T04:11:44.544Z,102280.81
2023-04-02T04:14:28.257Z,102283.28
2023-04-02T04:17:23.840Z,102286.75
2023-04-02T04:20:22.094Z,102285.00
2023-04-02T04:22:56.026Z,102296.44
2023-04-02T04:25:30.657Z,102300.06
2023-04-02T04:28:19.759Z,102303.56
2023-04-02T04:30:53.309Z,102309.56
2023-04-02T04:33:39.936Z,102309.56
2023-04-02T04:36:27.848Z,102314.66
2023-04-02T04:38:59.570Z,102316.28
2023-04-02T04:41:34.966Z,102317.94
2023-04-02T04:44:13.025Z,102321.47
2023-04-02T04:46:47.596Z,102327.63
2023-04-02T04:49:27.841Z,102326.75
2023-04-02T04:52:22.174Z,102330.09
2023-04-02T04:54:48.965Z,102339.59
2023-04-02T04:57:35.130Z,102342.16
2023-04-02T05:00:17.489Z,102347.34
2023-04-02T05:03:06.203Z,102355.13
2023-04-02T05:05:38.977Z,102356.06
2023-04-02T05:08:13.784Z,102354.34
2023-04-02T05:10:51.924Z,102354.31
2023-04-02T05:13:28.533Z,102361.28
2023-04-02T05:16:11.699Z,102359.41
2023-04-02T05:18:43.854Z,102367.50
2023-04-02T05:21:16.711Z,102366.78
2023-04-02T05:23:53.867Z,102372.22
2023-04-02T05:26:41.948Z,102381.16
2023-04-02T05:29:21.423Z,102377.03
2023-04-02T05:31:53.661Z,102383.25
2023-04-02T05:34:32.045Z,102384.13
2023-04-02T05:36:59.009Z,102387.72
2023-04-02T05:39:27.209Z,102394.88
2023-04-02T05:42:00.354Z,102395.06
2023-04-02T05:44:33.268Z,102394.34
2023-04-02T05:47:07.994Z,102398.84
2023-04-02T05:49:46.037Z,102403.47
2023-04-02T05:52:17.542Z,102409.72
2023-04-02T05:54:58.396Z,102406.41
2023-04-02T05:57:43.831Z,102403.94
2023-04-02T06:00:21.742Z,102408.50
2023-04-02T06:03:00.095Z,102414.78
2023-04-02T06:05:34.150Z,102415.84
2023-04-02T06:08:16.389Z,102420.28
2023-04-02T06:10:54.718Z,102420.53
2023-04-02T06:13:22.104Z,102432.84
2023-04-02T06:15:48.853Z,102432.97
2023-04-02T06:18:28.251Z,102436.75
2023-04-02T06:20:55.901Z,102436.13
2023-04-02T06:23:37.310Z,102437.25
2023-04-02T06:26:19.593Z,102438.41
2023-04-02T06:29:07.128Z,102444.72
2023-04-02T06:31:39.397Z,102444.16
2023-04-02T06:34:14.018Z,102448.75
2023-04-02T06:36:41.314Z,102452.41
2023-04-02T06:39:11.403Z,102454.41
2023-04-02T06:41:38.178Z,102465.19
2023-04-02T06:44:12.147Z,102470.75
2023-04-02T06:46:52.631Z,102464.13
2023-04-02T06:49:44.397Z,102469.78
2023-04-02T06:52:33.391Z,102470.16
2023-04-02T06:55:07.614Z,102468.69
2023-04-02T06:57:35.877Z,102475.00
2023-04-02T07:00:02.782Z,102475.28
2023-04-02T07:02:36.041Z,102473.84
2023-04-02T07:05:09.264Z,102480.25
2023-04-02T07:07:36.182Z,102489.19
2023-04-02T07:10:02.902Z,102482.47
2023-04-02T07:12:29.653Z,102492.34
2023-04-02T07:14:56.327Z,102485.53
2023-04-02T07:17:23.191Z,102487.53
2023-04-02T07:19:50.207Z,102488.69
2023-04-02T07:22:20.642Z,102491.53
2023-04-02T07:24:47.397Z,102494.50
2023-04-02T07:27:15.293Z,102500.97
2023-04-02T07:29:44.859Z,102507.34
2023-04-02T07:32:13.125Z,102502.38
2023-04-02T07:34:40.966Z,102499.16
2023-04-02T07:37:09.864Z,102505.53
2023-04-02T07:39:38.343Z,102502.31
2023-04-02T07:42:06.280Z,102508.66
2023-04-02T07:44:32.992Z,102512.47
2023-04-02T07:46:59.925Z,102516.25
2023-04-02T07:49:27.204Z,102528.75
2023-04-02T07:51:53.872Z,102524.69
2023-04-02T07:54:20.576Z,102520.59
2023-04-02T07:56:47.279Z,102524.41
2023-04-02T07:59:13.956Z,102523.84
2023-04-02T08:01:43.120Z,102538.19
2023-04-02T08:04:20.939Z,102546.47
2023-04-02T08:06:48.903Z,102537.25
2023-04-02T08:09:16.859Z,102544.78
2023-04-02T08:11:43.845Z,102542.66
2023-04-02T08:14:10.563Z,102545.38
2023-04-02T08:16:54.169Z,102544.88
2023-04-02T08:19:21.274Z,102554.47
2023-04-02T08:21:51.715Z,102550.75
2023-04-02T08:24:22.046Z,102553.66
2023-04-02T08:26:50.255Z,102545.53
2023-04-02T08:29:17.288Z,102554.63
2023-04-02T08:31:43.974Z,102560.91
2023-04-02T08:34:10.952Z,102564.38
2023-04-02T08:36:40.501Z,102563.28
2023-04-02T08:39:14.889Z,102563.00
2023-04-02T08:41:52.484Z,102564.41
2023-04-02T08:44:45.696Z,102563.34
2023-04-02T08:47:15.580Z,102571.44
2023-04-02T08:49:44.812Z,102568.84
2023-04-02T08:52:28.782Z,102573.97
2023-04-02T08:54:58.045Z,102578.22
2023-04-02T08:57:34.039Z,102576.41
2023-04-02T09:00:20.860Z,102584.06
2023-04-02T09:02:53.144Z,102578.50
2023-04-02T09:05:29.770Z,102585.78
2023-04-02T09:07:59.749Z,102590.09
2023-04-02T09:10:40.109Z,102600.56
2023-04-02T09:13:20.233Z,102600.41
2023-04-02T09:15:47.934Z,102601.69
2023-04-02T09:18:19.390Z,102607.84
2023-04-02T09:20:48.197Z,102616.91
2023-04-02T09:23:21.084Z,102622.97
2023-04-02T09:26:02.992Z,102623.66
2023-04-02T09:28:30.785Z,102625.47
2023-04-02T09:31:19.191Z,102626.75
2023-04-02T09:33:51.640Z,102627.16
2023-04-02T09:36:39.462Z,102626.66
2023-04-02T09:39:23.774Z,102636.25
2023-04-02T09:42:04.586Z,102641.06
2023-04-02T09:44:32.762Z,102646.69
2023-04-02T09:47:05.844Z,102634.56
2023-04-02T09:49:40.158Z,102642.69
2023-04-02T09:52:27.714Z,102647.22
2023-04-02T09:55:19.164Z,102645.53
2023-04-02T09:57:47.689Z,102636.72
2023-04-02T10:00:29.900Z,102649.13
2023-04-02T10:03:04.267Z,102651.78
2023-04-02T10:05:40.664Z,102647.38
2023-04-02T10:08:21.291Z,102642.06
2023-04-02T10:10:51.451Z,102659.72
2023-04-02T10:13:36.000Z,102655.25
2023-04-02T10:16:12.473Z,102665.78
2023-04-02T10:18:42.187Z,102675.44
2023-04-02T10:21:12.907Z,102675.47
2023-04-02T10:23:39.945Z,102679.84
2023-04-02T10:26:32.275Z,102689.44
2023-04-02T10:29:21.623Z,102685.78
2023-04-02T10:32:06.766Z,102693.56
2023-04-02T10:34:33.345Z,102694.31
2023-04-02T10:37:11.302Z,102697.69
2023-04-02T10:39:44.488Z,102708.25
2023-04-02T10:42:26.328Z,102716.22
2023-04-02T10:45:02.037Z,102719.81
2023-04-02T10:48:07.586Z,102731.34
2023-04-02T10:50:49.468Z,102737.66
2023-04-02T10:53:21.449Z,102729.00
2023-04-02T10:56:03.646Z,102737.00
2023-04-02T10:58:34.507Z,102724.69
2023-04-02T11:01:08.025Z,102738.81
2023-04-02T11:03:37.382Z,102735.28
2023-04-02T11:06:15.994Z,102746.69
2023-04-02T11:08:46.201Z,102744.03
2023-04-02T11:11:22.644Z,102744.91
2023-04-02T11:13:57.962Z,102745.84
2023-04-02T11:16:25.518Z,102767.97
2023-04-02T11:19:16.853Z,102770.53
2023-04-02T11:21:59.404Z,102779.31
2023-04-02T11:24:30.366Z,102783.72
2023-04-02T11:27:12.258Z,102794.22
2023-04-02T11:29:52.390Z,102792.44
2023-04-02T11:32:22.004Z,102800.34
2023-04-02T11:34:53.832Z,102799.47
2023-04-02T11:37:45.732Z,102800.38
2023-04-02T11:40:12.917Z,102800.41
2023-04-02T11:42:49.494Z,102814.50
2023-04-02T11:52:47.183Z,102823.94
2023-04-02T11:55:35.053Z,102839.53
2023-04-02T11:58:08.398Z,102842.88
2023-04-02T12:00:53.032Z,102842.03
2023-04-02T12:03:26.111Z,102847.25
2023-04-02T12:06:04.143Z,102853.31
2023-04-02T12:09:09.250Z,102859.47
2023-04-02T12:11:39.229Z,102857.72
2023-04-02T12:14:36.739Z,102840.06
2023-04-02T12:17:15.520Z,102864.66
2023-04-02T12:19:51.610Z,102853.25
2023-04-02T12:22:25.660Z,102871.78
2023-04-02T12:24:56.680Z,102866.44
2023-04-02T12:27:27.946Z,102874.16
2023-04-02T12:30:11.641Z,102867.84
2023-04-02T12:32:38.734Z,102868.66
2023-04-02T12:35:06.568Z,102863.34
2023-04-02T12:37:33.260Z,102888.03
2023-04-02T12:40:07.124Z,102871.31
2023-04-02T12:42:36.378Z,102874.81
2023-04-02T12:45:05.615Z,102887.09
2023-04-02T12:47:33.162Z,102881.75
2023-04-02T12:50:01.823Z,102888.72
2023-04-02T12:52:29.724Z,102882.66
2023-04-02T12:54:58.407Z,102896.81
2023-04-02T12:57:29.088Z,102896.81
2023-04-02T12:59:58.542Z,102895.84
2023-04-02T13:02:28.091Z,102887.91
2023-04-02T13:05:03.562Z,102897.75
2023-04-02T13:07:33.649Z,102902.22
2023-04-02T13:10:05.072Z,102901.31
2023-04-02T13:12:41.463Z,102907.47
2023-04-02T13:15:22.197Z,102911.00
2023-04-02T13:18:03.828Z,102912.84
2023-04-02T13:20:37.062Z,102905.78
2023-04-02T13:23:29.161Z,102916.22
2023-04-02T13:26:19.508Z,102915.28
2023-04-02T13:29:18.254Z,102919.59
2023-04-02T13:31:45.210Z,102922.19
2023-04-02T13:34:11.874Z,102914.22
2023-04-02T13:36:38.576Z,102916.75
2023-04-02T13:39:05.846Z,102921.97
2023-04-02T13:41:39.854Z,102926.28
2023-04-02T13:44:06.764Z,102934.91
2023-04-02T13:46:34.998Z,102930.34
2023-04-02T13:49:02.023Z,102938.97
2023-04-02T13:51:38.039Z,102921.13
2023-04-02T13:54:13.927Z,102927.00
2023-04-02T13:56:41.399Z,102937.34
2023-04-02T13:59:08.102Z,102944.28
2023-04-02T14:01:35.150Z,102944.22
2023-04-02T14:04:02.708Z,102948.47
2023-04-02T14:06:51.866Z,102943.78
2023-04-02T14:09:40.522Z,102954.84
2023-04-02T14:12:28.807Z,102951.94
2023-04-02T14:15:12.531Z,102951.94
2023-04-02T14:17:51.105Z,102961.63
2023-04-02T14:20:51.437Z,102962.38
2023-04-02T14:23:33.144Z,102968.38
2023-04-02T14:26:22.318Z,102963.97
2023-04-02T14:29:04.526Z,102963.84
2023-04-02T14:31:41.338Z,102966.44
2023-04-02T14:34:39.947Z,102967.34
2023-04-02T14:37:22.806Z,102971.00
2023-04-02T14:40:07.691Z,102986.03
2023-04-02T14:42:43.834Z,102985.31
2023-04-02T14:45:22.043Z,102980.94
2023-04-02T14:48:02.219Z,102993.94
2023-04-02T14:50:41.859Z,102991.31
2023-04-02T14:53:18.357Z,102994.97
2023-04-02T14:55:48.461Z,102997.69
2023-04-02T14:58:39.201Z,102991.38
2023-04-02T15:01:19.058Z,103007.84
2023-04-02T15:03:53.213Z,103001.59
2023-04-02T15:06:24.742Z,102999.66
2023-04-02T15:09:18.128Z,103001.31
2023-04-02T15:11:54.999Z,103006.53
2023-04-02T15:14:28.643Z,103006.31
2023-04-02T15:16:55.595Z,103018.53
2023-04-02T15:19:22.312Z,103021.31
2023-04-02T15:22:09.440Z,103017.09
2023-04-02T15:25:09.985Z,103019.81
2023-04-02T15:28:02.303Z,103019.88
2023-04-02T15:30:39.088Z,103017.25
2023-04-02T15:33:29.698Z,103031.25
2023-04-02T15:36:24.110Z,103028.78
2023-04-02T15:38:58.785Z,103032.38
2023-04-02T15:41:27.616Z,103038.59
2023-04-02T15:44:15.430Z,103038.59
2023-04-02T15:46:47.795Z,103041.22
2023-04-02T15:49:45.169Z,103045.38
2023-04-02T15:52:30.463Z,103050.31
2023-04-02T15:55:16.460Z,103049.28
2023-04-02T15:58:01.585Z,103043.69
2023-04-02T16:00:34.498Z,103059.38
2023-04-02T16:03:47.516Z,103058.44
2023-04-02T16:06:29.294Z,103052.28
2023-04-02T16:09:14.371Z,103054.84
2023-04-02T16:11:41.262Z,103075.66
2023-04-02T16:14:31.419Z,103075.38
2023-04-02T16:17:21.514Z,103071.47
2023-04-02T16:20:28.776Z,103076.50
2023-04-02T16:23:21.129Z,103090.25
2023-04-02T16:25:56.553Z,103094.31
2023-04-02T16:28:50.630Z,103093.16
2023-04-02T16:31:26.257Z,103088.53
2023-04-02T16:34:12.884Z,103090.81
2023-04-02T16:36:52.237Z,103101.81
2023-04-02T16:39:37.304Z,103105.84
2023-04-02T16:42:22.491Z,103107.06
2023-04-02T16:45:16.448Z,103104.97
2023-04-02T16:48:08.483Z,103099.44
2023-04-02T16:50:48.965Z,103113.28
2023-04-02T16:53:58.698Z,103112.38
2023-04-02T16:56:56.250Z,103128.00
2023-04-02T16:59:37.861Z,103128.69
2023-04-02T17:02:20.630Z,103132.06
2023-04-02T17:05:29.702Z,103130.00
2023-04-02T17:08:15.106Z,103146.19
2023-04-02T17:10:55.812Z,103149.38
2023-04-02T17:13:40.450Z,103152.63
2023-04-02T17:16:20.197Z,103153.25
2023-04-02T17:18:51.222Z,103153.94
2023-04-02T17:21:22.314Z,103151.03
2023-04-02T17:24:17.280Z,103154.25
2023-04-02T17:26:47.829Z,103153.13
2023-04-02T17:29:21.957Z,103160.84
2023-04-02T17:31:50.651Z,103163.09
2023-04-02T17:34:18.955Z,103163.78
2023-04-02T17:37:03.997Z,103167.16
2023-04-02T17:39:55.339Z,103173.94
2023-04-02T17:42:30.945Z,103183.34
2023-04-02T17:45:14.322Z,103185.59
2023-04-02T17:48:18.392Z,103187.16
2023-04-02T17:50:52.247Z,103185.16
2023-04-02T17:53:29.696Z,103185.84
2023-04-02T17:56:41.200Z,103188.16
2023-04-02T17:59:13.894Z,103203.66
2023-04-02T18:01:58.921Z,103193.00
2023-04-02T18:04:40.544Z,103198.13
2023-04-02T18:07:40.851Z,103207.59
2023-04-02T18:10:19.491Z,103212.59
2023-04-02T18:12:46.135Z,103218.50
2023-04-02T18:15:24.873Z,103219.16
2023-04-02T18:18:26.992Z,103207.69
2023-04-02T18:20:56.739Z,103213.50
2023-04-02T18:24:04.454Z,103216.78
2023-04-02T18:26:36.997Z,103224.47
2023-04-02T18:29:27.098Z,103223.38
2023-04-02T18:32:12.406Z,103223.19
2023-04-02T18:34:45.200Z,103233.38
2023-04-02T18:37:36.065Z,103230.63
2023-04-02T18:40:02.680Z,103230.63
2023-04-02T18:42:52.524Z,103227.88
2023-04-02T18:45:33.010Z,103232.06
2023-04-02T18:48:16.785Z,103238.97
2023-04-02T18:50:46.978Z,103236.34
2023-04-02T18:53:24.663Z,103242.38
2023-04-02T18:55:56.527Z,103245.69
2023-04-02T18:58:29.888Z,103246.41
2023-04-02T19:00:58.570Z,103248.88
2023-04-02T19:03:45.580Z,103254.91
2023-04-02T19:06:23.829Z,103258.88
2023-04-02T19:08:57.678Z,103260.41
2023-04-02T19:11:29.806Z,103268.25
2023-04-02T19:14:01.970Z,103270.88
2023-04-02T19:16:37.816Z,103269.00
2023-04-02T19:19:20.034Z,103268.84
2023-04-02T19:21:55.392Z,103266.88
2023-04-02T19:25:03.768Z,103271.81
2023-04-02T19:27:53.270Z,103262.09
2023-04-02T19:30:47.156Z,103259.31
2023-04-02T19:33:36.493Z,103264.22
2023-04-02T19:36:06.540Z,103270.28
2023-04-02T19:38:52.707Z,103271.03
2023-04-02T19:41:34.897Z,103276.16
2023-04-02T19:44:01.947Z,103279.44
2023-04-02T19:46:28.962Z,103280.34
2023-04-02T19:49:23.138Z,103294.97
2023-04-02T19:51:50.826Z,103284.38
2023-04-02T19:54:18.328Z,103291.25
2023-04-02T19:56:45.535Z,103286.78
2023-04-02T19:59:18.194Z,103288.50
2023-04-02T20:01:46.208Z,103283.13
2023-04-02T20:04:13.479Z,103292.72
2023-04-02T20:06:40.215Z,103290.81
2023-04-02T20:09:08.479Z,103287.84
2023-04-02T20:11:37.105Z,103296.59
2023-04-02T20:14:04.471Z,103305.25
2023-04-02T20:16:32.884Z,103301.75
2023-04-02T20:18:59.834Z,103299.00
2023-04-02T20:21:27.575Z,103299.69
2023-04-02T20:23:55.476Z,103294.09
2023-04-02T20:26:22.869Z,103298.47
2023-04-02T20:28:49.703Z,103309.81
2023-04-02T20:31:18.558Z,103306.25
2023-04-02T20:33:45.559Z,103302.66
2023-04-02T20:36:14.466Z,103300.94
2023-04-02T20:38:41.714Z,103303.56
2023-04-02T20:41:09.436Z,103300.06
2023-04-02T20:43:40.473Z,103297.22
2023-04-02T20:46:09.505Z,103306.75
2023-04-02T20:48:37.746Z,103304.81
2023-04-02T20:51:07.372Z,103299.44
2023-04-02T20:53:36.013Z,103302.88
2023-04-02T20:56:10.477Z,103308.91
2023-04-02T20:58:38.146Z,103300.94
2023-04-02T21:01:16.343Z,103305.00
2023-04-02T21:03:43.754Z,103311.03
2023-04-02T21:06:22.023Z,103298.84
2023-04-02T21:08:49.987Z,103314.63
2023-04-02T21:11:17.601Z,103308.50
2023-04-02T21:13:44.498Z,103309.44
2023-04-02T21:16:14.209Z,103313.59
2023-04-02T21:18:41.088Z,103293.25
2023-04-02T21:21:08.298Z,103309.13
2023-04-02T21:23:34.998Z,103310.66
2023-04-02T21:26:06.265Z,103300.91
2023-04-02T21:28:34.473Z,103306.84
2023-04-02T21:31:15.908Z,103309.38
2023-04-02T21:33:46.371Z,103313.84
2023-04-02T21:36:16.431Z,103314.69
2023-04-02T21:38:45.923Z,103320.72
2023-04-02T21:41:16.168Z,103323.16
2023-04-02T21:43:44.227Z,103317.94
2023-04-02T21:46:11.124Z,103325.94
2023-04-02T21:48:38.012Z,103320.72
2023-04-02T21:51:06.765Z,103325.09
2023-04-02T21:53:33.822Z,103322.41
2023-04-02T21:56:02.101Z,103314.50
2023-04-02T21:58:28.833Z,103323.94
2023-04-02T22:00:55.651Z,103326.50
2023-04-02T22:03:31.083Z,103324.94
2023-04-02T22:06:07.209Z,103326.66
2023-04-02T22:08:38.842Z,103320.56
2023-04-02T22:11:12.236Z,103334.38
2023-04-02T22:13:40.780Z,103322.09
2023-04-02T22:16:15.796Z,103323.78
2023-04-02T22:18:43.395Z,103325.28
2023-04-02T22:21:11.601Z,103332.09
2023-04-02T22:23:38.955Z,103326.75
2023-04-02T22:26:07.116Z,103335.47
2023-04-02T22:28:34.237Z,103325.94
2023-04-02T22:31:18.306Z,103327.56
2023-04-02T22:33:45.808Z,103323.09
2023-04-02T22:36:14.338Z,103330.00
2023-04-02T22:38:41.401Z,103337.66
2023-04-02T22:41:14.110Z,103338.16
2023-04-02T22:43:44.099Z,103335.25
2023-04-02T22:46:13.104Z,103338.47
2023-04-02T22:48:40.074Z,103335.72
2023-04-02T22:51:11.527Z,103331.44
2023-04-02T22:53:39.182Z,103336.63
2023-04-02T22:56:07.097Z,103330.50
2023-04-02T22:58:34.778Z,103327.66
2023-04-02T23:01:06.905Z,103332.72
2023-04-02T23:03:34.333Z,103335.97
2023-04-02T23:06:03.698Z,103323.59
2023-04-02T23:08:30.633Z,103333.31
2023-04-02T23:11:06.895Z,103339.56
2023-04-02T23:13:34.737Z,103333.59
2023-04-02T23:16:02.964Z,103338.03
2023-04-02T23:18:32.556Z,103333.44
2023-04-02T23:20:59.445Z,103333.44
2023-04-02T23:23:27.031Z,103345.00
2023-04-02T23:26:04.807Z,103335.41
2023-04-02T23:28:31.680Z,103341.50
2023-04-02T23:30:58.965Z,103337.91
2023-04-02T23:33:25.640Z,103347.44
2023-04-02T23:35:52.359Z,103338.50
2023-04-02T23:38:19.103Z,103348.91
2023-04-02T23:40:45.815Z,103348.75
2023-04-02T23:43:12.486Z,103345.22
2023-04-02T23:45:39.142Z,103343.38
2023-04-02T23:48:06.208Z,103343.22
2023-04-02T23:50:33.029Z,103343.22
2023-04-02T23:52:59.855Z,103345.00
2023-04-02T23:55:26.508Z,103349.97
2023-04-02T23:57:53.151Z,103345.47
